sensor_id;sensor_type;location;lat;lon;timestamp;P1;durP1;ratioP1;P2;durP2;ratioP2
60257;SDS011;46115;44.484;11.314;2023-03-31T00:03:41;10.13;;;1.73;;
60257;SDS011;46115;44.484;11.314;2023-03-31T00:07:44;6.38;;;1.77;;
60257;SDS011;46115;44.484;11.314;2023-03-31T00:11:48;7.57;;;1.73;;
60257;SDS011;46115;44.484;11.314;2023-03-31T00:15:56;6.10;;;1.73;;
60257;SDS011;46115;44.484;11.314;2023-03-31T00:19:59;5.38;;;1.60;;
60257;SDS011;46115;44.484;11.314;2023-03-31T00:24:05;10.07;;;1.77;;
60257;SDS011;46115;44.484;11.314;2023-03-31T00:28:08;6.90;;;2.17;;
60257;SDS011;46115;44.484;11.314;2023-03-31T00:36:15;9.25;;;1.95;;
60257;SDS011;46115;44.484;11.314;2023-03-31T00:40:21;7.82;;;1.85;;
60257;SDS011;46115;44.484;11.314;2023-03-31T00:44:24;5.80;;;1.63;;
60257;SDS011;46115;44.484;11.314;2023-03-31T00:48:28;7.55;;;2.10;;
60257;SDS011;46115;44.484;11.314;2023-03-31T00:52:31;7.03;;;1.83;;
60257;SDS011;46115;44.484;11.314;2023-03-31T00:56:38;8.43;;;2.08;;
60257;SDS011;46115;44.484;11.314;2023-03-31T01:00:42;7.63;;;1.58;;
60257;SDS011;46115;44.484;11.314;2023-03-31T01:04:47;9.45;;;2.00;;
60257;SDS011;46115;44.484;11.314;2023-03-31T01:08:54;10.05;;;1.90;;
60257;SDS011;46115;44.484;11.314;2023-03-31T01:16:59;8.43;;;1.67;;
60257;SDS011;46115;44.484;11.314;2023-03-31T01:21:36;5.30;;;1.60;;
60257;SDS011;46115;44.484;11.314;2023-03-31T01:26:25;6.13;;;1.83;;
60257;SDS011;46115;44.484;11.314;2023-03-31T01:40:13;8.05;;;1.88;;
60257;SDS011;46115;44.484;11.314;2023-03-31T01:44:36;7.90;;;1.98;;
60257;SDS011;46115;44.484;11.314;2023-03-31T01:48:47;7.45;;;1.73;;
60257;SDS011;46115;44.484;11.314;2023-03-31T01:52:56;7.03;;;1.80;;
60257;SDS011;46115;44.484;11.314;2023-03-31T01:57:04;5.93;;;1.73;;
60257;SDS011;46115;44.484;11.314;2023-03-31T02:01:15;7.82;;;1.83;;
60257;SDS011;46115;44.484;11.314;2023-03-31T02:05:23;9.93;;;2.10;;
60257;SDS011;46115;44.484;11.314;2023-03-31T02:09:29;6.72;;;2.08;;
60257;SDS011;46115;44.484;11.314;2023-03-31T02:13:38;10.00;;;1.98;;
60257;SDS011;46115;44.484;11.314;2023-03-31T02:17:44;11.95;;;2.13;;
60257;SDS011;46115;44.484;11.314;2023-03-31T02:21:50;6.43;;;1.85;;
60257;SDS011;46115;44.484;11.314;2023-03-31T02:25:56;8.52;;;1.80;;
60257;SDS011;46115;44.484;11.314;2023-03-31T02:30:06;10.77;;;2.20;;
60257;SDS011;46115;44.484;11.314;2023-03-31T02:34:10;8.30;;;1.90;;
60257;SDS011;46115;44.484;11.314;2023-03-31T02:38:13;10.25;;;2.00;;
60257;SDS011;46115;44.484;11.314;2023-03-31T02:42:15;6.90;;;1.77;;
60257;SDS011;46115;44.484;11.314;2023-03-31T02:46:20;6.63;;;2.10;;
60257;SDS011;46115;44.484;11.314;2023-03-31T02:50:23;9.40;;;2.13;;
60257;SDS011;46115;44.484;11.314;2023-03-31T02:54:42;9.35;;;2.33;;
60257;SDS011;46115;44.484;11.314;2023-03-31T02:59:02;10.93;;;2.17;;
60257;SDS011;46115;44.484;11.314;2023-03-31T03:03:23;10.05;;;2.13;;
60257;SDS011;46115;44.484;11.314;2023-03-31T03:07:35;10.73;;;2.25;;
60257;SDS011;46115;44.484;11.314;2023-03-31T03:11:48;9.35;;;1.90;;
60257;SDS011;46115;44.484;11.314;2023-03-31T03:20:06;10.23;;;2.00;;
60257;SDS011;46115;44.484;11.314;2023-03-31T03:24:11;13.05;;;2.10;;
60257;SDS011;46115;44.484;11.314;2023-03-31T03:28:14;11.85;;;1.90;;
60257;SDS011;46115;44.484;11.314;2023-03-31T03:32:17;10.25;;;2.10;;
60257;SDS011;46115;44.484;11.314;2023-03-31T03:36:21;9.18;;;2.00;;
60257;SDS011;46115;44.484;11.314;2023-03-31T03:40:23;8.60;;;1.90;;
60257;SDS011;46115;44.484;11.314;2023-03-31T03:44:26;10.15;;;2.00;;
60257;SDS011;46115;44.484;11.314;2023-03-31T03:48:28;11.07;;;2.03;;
60257;SDS011;46115;44.484;11.314;2023-03-31T03:52:32;10.95;;;2.10;;
60257;SDS011;46115;44.484;11.314;2023-03-31T03:56:35;13.48;;;2.25;;
60257;SDS011;46115;44.484;11.314;2023-03-31T04:00:37;9.32;;;2.30;;
60257;SDS011;46115;44.484;11.314;2023-03-31T04:04:39;10.73;;;1.83;;
60257;SDS011;46115;44.484;11.314;2023-03-31T04:08:43;7.57;;;2.10;;
60257;SDS011;46115;44.484;11.314;2023-03-31T04:12:46;11.30;;;2.08;;
60257;SDS011;46115;44.484;11.314;2023-03-31T04:16:48;9.85;;;2.05;;
60257;SDS011;46115;44.484;11.314;2023-03-31T04:20:51;9.50;;;1.88;;
60257;SDS011;46115;44.484;11.314;2023-03-31T04:29:16;6.20;;;1.98;;
60257;SDS011;46115;44.484;11.314;2023-03-31T04:33:20;7.07;;;1.80;;
60257;SDS011;46115;44.484;11.314;2023-03-31T04:37:23;9.75;;;2.15;;
60257;SDS011;46115;44.484;11.314;2023-03-31T04:41:29;8.95;;;2.30;;
60257;SDS011;46115;44.484;11.314;2023-03-31T04:45:31;11.57;;;2.00;;
60257;SDS011;46115;44.484;11.314;2023-03-31T04:49:34;9.13;;;1.95;;
60257;SDS011;46115;44.484;11.314;2023-03-31T04:53:36;9.13;;;2.00;;
60257;SDS011;46115;44.484;11.314;2023-03-31T04:57:40;6.80;;;1.80;;
60257;SDS011;46115;44.484;11.314;2023-03-31T05:01:43;9.02;;;1.80;;
60257;SDS011;46115;44.484;11.314;2023-03-31T05:05:45;8.95;;;2.10;;
60257;SDS011;46115;44.484;11.314;2023-03-31T05:09:48;10.50;;;2.17;;
60257;SDS011;46115;44.484;11.314;2023-03-31T05:13:52;6.95;;;2.05;;
60257;SDS011;46115;44.484;11.314;2023-03-31T05:17:56;6.15;;;1.85;;
60257;SDS011;46115;44.484;11.314;2023-03-31T05:21:58;8.13;;;2.30;;
60257;SDS011;46115;44.484;11.314;2023-03-31T05:26:01;7.68;;;2.45;;
60257;SDS011;46115;44.484;11.314;2023-03-31T05:30:06;9.05;;;2.38;;
60257;SDS011;46115;44.484;11.314;2023-03-31T05:34:09;7.28;;;2.20;;
60257;SDS011;46115;44.484;11.314;2023-03-31T05:38:13;10.30;;;2.40;;
60257;SDS011;46115;44.484;11.314;2023-03-31T05:42:16;12.65;;;3.03;;
60257;SDS011;46115;44.484;11.314;2023-03-31T05:46:20;10.25;;;2.83;;
60257;SDS011;46115;44.484;11.314;2023-03-31T05:50:22;9.52;;;3.00;;
60257;SDS011;46115;44.484;11.314;2023-03-31T05:54:25;10.70;;;2.90;;
60257;SDS011;46115;44.484;11.314;2023-03-31T05:58:28;13.82;;;3.47;;
60257;SDS011;46115;44.484;11.314;2023-03-31T06:02:33;9.10;;;3.60;;
60257;SDS011;46115;44.484;11.314;2023-03-31T06:06:35;15.43;;;3.53;;
60257;SDS011;46115;44.484;11.314;2023-03-31T06:10:37;13.07;;;3.80;;
60257;SDS011;46115;44.484;11.314;2023-03-31T06:14:42;11.18;;;3.78;;
60257;SDS011;46115;44.484;11.314;2023-03-31T06:18:46;11.77;;;3.33;;
60257;SDS011;46115;44.484;11.314;2023-03-31T06:22:51;10.85;;;3.40;;
60257;SDS011;46115;44.484;11.314;2023-03-31T06:26:53;11.65;;;3.40;;
60257;SDS011;46115;44.484;11.314;2023-03-31T06:30:59;9.27;;;3.28;;
60257;SDS011;46115;44.484;11.314;2023-03-31T06:35:05;9.05;;;3.10;;
60257;SDS011;46115;44.484;11.314;2023-03-31T06:39:08;10.80;;;3.50;;
60257;SDS011;46115;44.484;11.314;2023-03-31T06:43:14;12.38;;;3.25;;
60257;SDS011;46115;44.484;11.314;2023-03-31T06:47:16;12.05;;;3.25;;
60257;SDS011;46115;44.484;11.314;2023-03-31T06:51:20;10.57;;;2.83;;
60257;SDS011;46115;44.484;11.314;2023-03-31T06:55:23;11.93;;;2.80;;
60257;SDS011;46115;44.484;11.314;2023-03-31T06:59:25;8.48;;;2.85;;
60257;SDS011;46115;44.484;11.314;2023-03-31T07:03:28;14.23;;;3.03;;
60257;SDS011;46115;44.484;11.314;2023-03-31T07:07:32;14.80;;;3.28;;
60257;SDS011;46115;44.484;11.314;2023-03-31T07:11:35;14.73;;;3.30;;
60257;SDS011;46115;44.484;11.314;2023-03-31T07:15:38;9.20;;;2.83;;
60257;SDS011;46115;44.484;11.314;2023-03-31T07:19:40;9.65;;;2.70;;
60257;SDS011;46115;44.484;11.314;2023-03-31T07:23:44;17.83;;;3.28;;
60257;SDS011;46115;44.484;11.314;2023-03-31T07:27:46;13.63;;;2.60;;
60257;SDS011;46115;44.484;11.314;2023-03-31T07:31:49;15.38;;;2.80;;
60257;SDS011;46115;44.484;11.314;2023-03-31T07:35:52;10.77;;;2.42;;
60257;SDS011;46115;44.484;11.314;2023-03-31T07:39:57;12.30;;;2.55;;
60257;SDS011;46115;44.484;11.314;2023-03-31T07:43:59;8.68;;;3.05;;
60257;SDS011;46115;44.484;11.314;2023-03-31T07:48:02;13.95;;;3.33;;
60257;SDS011;46115;44.484;11.314;2023-03-31T07:52:04;14.20;;;3.63;;
60257;SDS011;46115;44.484;11.314;2023-03-31T07:56:08;16.08;;;3.55;;
60257;SDS011;46115;44.484;11.314;2023-03-31T08:00:11;13.95;;;3.85;;
60257;SDS011;46115;44.484;11.314;2023-03-31T08:04:15;14.63;;;3.50;;
60257;SDS011;46115;44.484;11.314;2023-03-31T08:08:18;12.40;;;4.10;;
60257;SDS011;46115;44.484;11.314;2023-03-31T08:12:22;14.63;;;3.97;;
60257;SDS011;46115;44.484;11.314;2023-03-31T08:16:25;13.55;;;3.92;;
60257;SDS011;46115;44.484;11.314;2023-03-31T08:20:28;45.85;;;6.45;;
60257;SDS011;46115;44.484;11.314;2023-03-31T08:24:30;19.98;;;5.85;;
60257;SDS011;46115;44.484;11.314;2023-03-31T08:28:34;16.35;;;5.82;;
60257;SDS011;46115;44.484;11.314;2023-03-31T08:32:37;16.65;;;5.65;;
60257;SDS011;46115;44.484;11.314;2023-03-31T08:36:39;27.85;;;6.07;;
60257;SDS011;46115;44.484;11.314;2023-03-31T08:40:42;19.05;;;6.45;;
60257;SDS011;46115;44.484;11.314;2023-03-31T08:44:48;19.10;;;6.28;;
60257;SDS011;46115;44.484;11.314;2023-03-31T08:48:56;14.90;;;5.70;;
60257;SDS011;46115;44.484;11.314;2023-03-31T08:53:03;15.75;;;6.00;;
60257;SDS011;46115;44.484;11.314;2023-03-31T08:57:10;20.90;;;5.70;;
60257;SDS011;46115;44.484;11.314;2023-03-31T09:01:20;17.63;;;5.90;;
60257;SDS011;46115;44.484;11.314;2023-03-31T09:05:34;14.68;;;5.97;;
60257;SDS011;46115;44.484;11.314;2023-03-31T09:09:47;16.92;;;5.97;;
60257;SDS011;46115;44.484;11.314;2023-03-31T09:13:59;14.18;;;5.38;;
60257;SDS011;46115;44.484;11.314;2023-03-31T09:18:14;13.00;;;5.53;;
60257;SDS011;46115;44.484;11.314;2023-03-31T09:22:21;24.02;;;5.40;;
60257;SDS011;46115;44.484;11.314;2023-03-31T09:26:28;13.43;;;5.00;;
60257;SDS011;46115;44.484;11.314;2023-03-31T09:30:37;14.25;;;5.40;;
60257;SDS011;46115;44.484;11.314;2023-03-31T09:34:43;19.98;;;5.35;;
60257;SDS011;46115;44.484;11.314;2023-03-31T09:38:47;14.77;;;5.25;;
60257;SDS011;46115;44.484;11.314;2023-03-31T09:42:50;14.23;;;4.90;;
60257;SDS011;46115;44.484;11.314;2023-03-31T09:46:57;9.65;;;4.88;;
60257;SDS011;46115;44.484;11.314;2023-03-31T09:51:05;14.98;;;4.85;;
60257;SDS011;46115;44.484;11.314;2023-03-31T09:55:15;17.10;;;4.75;;
60257;SDS011;46115;44.484;11.314;2023-03-31T09:59:21;12.25;;;4.20;;
60257;SDS011;46115;44.484;11.314;2023-03-31T10:03:31;13.10;;;4.57;;
60257;SDS011;46115;44.484;11.314;2023-03-31T10:07:37;14.68;;;4.40;;
60257;SDS011;46115;44.484;11.314;2023-03-31T10:11:41;16.38;;;5.32;;
60257;SDS011;46115;44.484;11.314;2023-03-31T10:15:54;16.92;;;5.32;;
60257;SDS011;46115;44.484;11.314;2023-03-31T10:20:11;49.10;;;8.20;;
60257;SDS011;46115;44.484;11.314;2023-03-31T10:24:22;15.55;;;4.90;;
60257;SDS011;46115;44.484;11.314;2023-03-31T10:28:24;14.18;;;4.63;;
60257;SDS011;46115;44.484;11.314;2023-03-31T10:32:28;14.82;;;5.32;;
60257;SDS011;46115;44.484;11.314;2023-03-31T10:36:31;15.20;;;5.32;;
60257;SDS011;46115;44.484;11.314;2023-03-31T10:40:36;14.70;;;4.82;;
60257;SDS011;46115;44.484;11.314;2023-03-31T10:44:41;27.27;;;5.22;;
60257;SDS011;46115;44.484;11.314;2023-03-31T10:48:43;11.98;;;4.45;;
60257;SDS011;46115;44.484;11.314;2023-03-31T10:52:47;12.15;;;4.40;;
60257;SDS011;46115;44.484;11.314;2023-03-31T10:56:51;13.98;;;4.35;;
60257;SDS011;46115;44.484;11.314;2023-03-31T11:00:59;13.82;;;4.13;;
60257;SDS011;46115;44.484;11.314;2023-03-31T11:05:13;10.35;;;3.70;;
60257;SDS011;46115;44.484;11.314;2023-03-31T11:09:23;12.07;;;3.40;;
60257;SDS011;46115;44.484;11.314;2023-03-31T11:13:47;14.52;;;3.53;;
60257;SDS011;46115;44.484;11.314;2023-03-31T11:17:59;12.55;;;3.10;;
60257;SDS011;46115;44.484;11.314;2023-03-31T11:22:14;9.98;;;3.03;;
60257;SDS011;46115;44.484;11.314;2023-03-31T11:26:28;9.07;;;2.88;;
60257;SDS011;46115;44.484;11.314;2023-03-31T11:30:41;9.63;;;4.00;;
60257;SDS011;46115;44.484;11.314;2023-03-31T11:34:51;9.80;;;3.08;;
60257;SDS011;46115;44.484;11.314;2023-03-31T11:43:35;9.05;;;2.85;;
60257;SDS011;46115;44.484;11.314;2023-03-31T11:47:45;9.32;;;3.13;;
60257;SDS011;46115;44.484;11.314;2023-03-31T11:51:52;8.10;;;2.70;;
60257;SDS011;46115;44.484;11.314;2023-03-31T11:55:57;11.00;;;2.97;;
60257;SDS011;46115;44.484;11.314;2023-03-31T12:00:03;9.52;;;2.72;;
60257;SDS011;46115;44.484;11.314;2023-03-31T12:04:17;10.13;;;2.90;;
60257;SDS011;46115;44.484;11.314;2023-03-31T12:08:32;8.75;;;2.63;;
60257;SDS011;46115;44.484;11.314;2023-03-31T12:12:38;5.38;;;1.88;;
60257;SDS011;46115;44.484;11.314;2023-03-31T12:16:44;5.93;;;2.17;;
60257;SDS011;46115;44.484;11.314;2023-03-31T12:20:50;10.57;;;2.38;;
60257;SDS011;46115;44.484;11.314;2023-03-31T12:24:56;7.32;;;1.92;;
60257;SDS011;46115;44.484;11.314;2023-03-31T12:28:59;3.95;;;1.63;;
60257;SDS011;46115;44.484;11.314;2023-03-31T12:33:06;5.60;;;1.50;;
60257;SDS011;46115;44.484;11.314;2023-03-31T12:46:48;6.45;;;1.77;;
60257;SDS011;46115;44.484;11.314;2023-03-31T12:51:08;4.22;;;1.30;;
60257;SDS011;46115;44.484;11.314;2023-03-31T12:55:31;3.88;;;1.50;;
60257;SDS011;46115;44.484;11.314;2023-03-31T12:59:38;7.43;;;1.88;;
60257;SDS011;46115;44.484;11.314;2023-03-31T13:03:43;4.43;;;1.60;;
60257;SDS011;46115;44.484;11.314;2023-03-31T13:07:48;5.15;;;1.48;;
60257;SDS011;46115;44.484;11.314;2023-03-31T13:11:51;4.32;;;1.50;;
60257;SDS011;46115;44.484;11.314;2023-03-31T13:15:55;6.90;;;1.65;;
60257;SDS011;46115;44.484;11.314;2023-03-31T13:24:37;8.15;;;1.80;;
60257;SDS011;46115;44.484;11.314;2023-03-31T13:28:40;5.78;;;1.90;;
60257;SDS011;46115;44.484;11.314;2023-03-31T13:32:50;6.05;;;1.60;;
60257;SDS011;46115;44.484;11.314;2023-03-31T13:37:09;5.18;;;1.77;;
60257;SDS011;46115;44.484;11.314;2023-03-31T13:41:23;6.72;;;1.90;;
60257;SDS011;46115;44.484;11.314;2023-03-31T13:45:41;3.80;;;1.70;;
60257;SDS011;46115;44.484;11.314;2023-03-31T13:49:59;6.97;;;2.10;;
60257;SDS011;46115;44.484;11.314;2023-03-31T13:54:38;4.97;;;1.98;;
60257;SDS011;46115;44.484;11.314;2023-03-31T13:59:22;5.10;;;2.15;;
60257;SDS011;46115;44.484;11.314;2023-03-31T14:03:36;5.50;;;2.10;;
60257;SDS011;46115;44.484;11.314;2023-03-31T14:07:49;6.53;;;2.10;;
60257;SDS011;46115;44.484;11.314;2023-03-31T14:11:57;7.03;;;2.45;;
60257;SDS011;46115;44.484;11.314;2023-03-31T14:16:00;5.15;;;2.15;;
60257;SDS011;46115;44.484;11.314;2023-03-31T14:20:13;6.38;;;2.22;;
60257;SDS011;46115;44.484;11.314;2023-03-31T14:24:29;9.15;;;2.53;;
60257;SDS011;46115;44.484;11.314;2023-03-31T14:28:44;7.97;;;2.38;;
60257;SDS011;46115;44.484;11.314;2023-03-31T14:33:01;9.10;;;2.40;;
60257;SDS011;46115;44.484;11.314;2023-03-31T14:37:12;6.43;;;2.33;;
60257;SDS011;46115;44.484;11.314;2023-03-31T14:41:19;6.05;;;2.42;;
60257;SDS011;46115;44.484;11.314;2023-03-31T14:45:29;6.65;;;2.50;;
60257;SDS011;46115;44.484;11.314;2023-03-31T14:49:34;6.15;;;2.50;;
60257;SDS011;46115;44.484;11.314;2023-03-31T14:53:38;5.75;;;2.80;;
60257;SDS011;46115;44.484;11.314;2023-03-31T14:57:42;4.72;;;2.40;;
60257;SDS011;46115;44.484;11.314;2023-03-31T15:01:48;7.45;;;2.53;;
60257;SDS011;46115;44.484;11.314;2023-03-31T15:05:54;7.63;;;2.65;;
60257;SDS011;46115;44.484;11.314;2023-03-31T15:09:58;8.23;;;2.80;;
60257;SDS011;46115;44.484;11.314;2023-03-31T15:14:02;8.50;;;2.67;;
60257;SDS011;46115;44.484;11.314;2023-03-31T15:18:05;10.40;;;2.63;;
60257;SDS011;46115;44.484;11.314;2023-03-31T15:22:09;9.63;;;2.78;;
60257;SDS011;46115;44.484;11.314;2023-03-31T15:26:16;7.53;;;2.72;;
60257;SDS011;46115;44.484;11.314;2023-03-31T15:30:22;6.72;;;2.40;;
60257;SDS011;46115;44.484;11.314;2023-03-31T15:34:27;7.40;;;2.60;;
60257;SDS011;46115;44.484;11.314;2023-03-31T15:38:33;7.00;;;2.97;;
60257;SDS011;46115;44.484;11.314;2023-03-31T15:42:36;9.02;;;2.83;;
60257;SDS011;46115;44.484;11.314;2023-03-31T15:46:55;9.70;;;2.92;;
60257;SDS011;46115;44.484;11.314;2023-03-31T15:51:00;8.25;;;2.80;;
60257;SDS011;46115;44.484;11.314;2023-03-31T15:59:28;10.30;;;2.95;;
60257;SDS011;46115;44.484;11.314;2023-03-31T16:03:34;13.60;;;3.00;;
60257;SDS011;46115;44.484;11.314;2023-03-31T16:07:40;8.60;;;2.75;;
60257;SDS011;46115;44.484;11.314;2023-03-31T16:11:45;10.63;;;3.00;;
60257;SDS011;46115;44.484;11.314;2023-03-31T16:15:51;7.95;;;2.60;;
60257;SDS011;46115;44.484;11.314;2023-03-31T16:19:58;7.28;;;2.85;;
60257;SDS011;46115;44.484;11.314;2023-03-31T16:24:07;6.03;;;2.45;;
60257;SDS011;46115;44.484;11.314;2023-03-31T16:28:12;5.13;;;2.20;;
60257;SDS011;46115;44.484;11.314;2023-03-31T16:32:17;5.45;;;2.30;;
60257;SDS011;46115;44.484;11.314;2023-03-31T16:36:22;5.90;;;2.42;;
60257;SDS011;46115;44.484;11.314;2023-03-31T16:40:24;5.30;;;2.20;;
60257;SDS011;46115;44.484;11.314;2023-03-31T16:44:26;4.80;;;1.90;;
60257;SDS011;46115;44.484;11.314;2023-03-31T16:48:30;6.47;;;1.80;;
60257;SDS011;46115;44.484;11.314;2023-03-31T16:52:34;4.55;;;1.83;;
60257;SDS011;46115;44.484;11.314;2023-03-31T16:56:37;4.65;;;1.83;;
60257;SDS011;46115;44.484;11.314;2023-03-31T17:00:40;4.80;;;1.70;;
60257;SDS011;46115;44.484;11.314;2023-03-31T17:04:43;3.85;;;1.65;;
60257;SDS011;46115;44.484;11.314;2023-03-31T17:08:47;6.13;;;1.70;;
60257;SDS011;46115;44.484;11.314;2023-03-31T17:12:49;3.88;;;1.70;;
60257;SDS011;46115;44.484;11.314;2023-03-31T17:16:52;4.18;;;1.90;;
60257;SDS011;46115;44.484;11.314;2023-03-31T17:21:01;4.72;;;1.70;;
60257;SDS011;46115;44.484;11.314;2023-03-31T17:25:07;3.60;;;1.50;;
60257;SDS011;46115;44.484;11.314;2023-03-31T17:29:11;3.10;;;1.27;;
60257;SDS011;46115;44.484;11.314;2023-03-31T17:33:13;2.00;;;1.10;;
60257;SDS011;46115;44.484;11.314;2023-03-31T17:37:16;2.00;;;1.05;;
60257;SDS011;46115;44.484;11.314;2023-03-31T17:41:21;5.72;;;1.10;;
60257;SDS011;46115;44.484;11.314;2023-03-31T17:45:24;2.40;;;1.10;;
60257;SDS011;46115;44.484;11.314;2023-03-31T17:49:26;2.22;;;1.10;;
60257;SDS011;46115;44.484;11.314;2023-03-31T17:53:29;2.88;;;1.23;;
60257;SDS011;46115;44.484;11.314;2023-03-31T17:57:32;2.65;;;1.02;;
60257;SDS011;46115;44.484;11.314;2023-03-31T18:01:36;3.47;;;1.23;;
60257;SDS011;46115;44.484;11.314;2023-03-31T18:05:39;2.22;;;1.02;;
60257;SDS011;46115;44.484;11.314;2023-03-31T18:09:41;2.25;;;1.10;;
60257;SDS011;46115;44.484;11.314;2023-03-31T18:13:45;1.98;;;1.10;;
60257;SDS011;46115;44.484;11.314;2023-03-31T18:17:47;2.05;;;1.10;;
60257;SDS011;46115;44.484;11.314;2023-03-31T22:06:07;4.43;;;2.30;;
60257;SDS011;46115;44.484;11.314;2023-03-31T22:10:11;6.80;;;2.20;;
60257;SDS011;46115;44.484;11.314;2023-03-31T22:14:13;4.70;;;2.30;;
60257;SDS011;46115;44.484;11.314;2023-03-31T22:18:16;3.78;;;2.28;;
60257;SDS011;46115;44.484;11.314;2023-03-31T22:22:20;6.85;;;2.50;;
60257;SDS011;46115;44.484;11.314;2023-03-31T22:26:23;3.90;;;2.70;;
60257;SDS011;46115;44.484;11.314;2023-03-31T22:30:26;5.95;;;3.80;;
60257;SDS011;46115;44.484;11.314;2023-03-31T22:34:29;5.50;;;2.70;;
60257;SDS011;46115;44.484;11.314;2023-03-31T22:38:33;6.35;;;2.80;;
60257;SDS011;46115;44.484;11.314;2023-03-31T22:42:36;6.07;;;2.90;;
60257;SDS011;46115;44.484;11.314;2023-03-31T22:46:38;5.20;;;3.33;;
60257;SDS011;46115;44.484;11.314;2023-03-31T22:50:41;8.45;;;4.18;;
60257;SDS011;46115;44.484;11.314;2023-03-31T22:54:45;12.55;;;6.30;;
60257;SDS011;46115;44.484;11.314;2023-03-31T22:58:48;12.55;;;6.72;;
60257;SDS011;46115;44.484;11.314;2023-03-31T23:02:52;11.70;;;6.38;;
60257;SDS011;46115;44.484;11.314;2023-03-31T23:06:54;12.93;;;6.45;;
60257;SDS011;46115;44.484;11.314;2023-03-31T23:10:58;13.07;;;6.63;;
60257;SDS011;46115;44.484;11.314;2023-03-31T23:15:01;9.80;;;5.57;;
60257;SDS011;46115;44.484;11.314;2023-03-31T23:19:04;11.27;;;5.63;;
60257;SDS011;46115;44.484;11.314;2023-03-31T23:23:06;11.60;;;5.47;;
60257;SDS011;46115;44.484;11.314;2023-03-31T23:27:10;10.30;;;5.15;;
60257;SDS011;46115;44.484;11.314;2023-03-31T23:31:13;9.93;;;5.05;;
60257;SDS011;46115;44.484;11.314;2023-03-31T23:35:16;9.70;;;5.30;;
60257;SDS011;46115;44.484;11.314;2023-03-31T23:39:22;12.15;;;5.88;;
60257;SDS011;46115;44.484;11.314;2023-03-31T23:43:27;12.15;;;4.60;;
60257;SDS011;46115;44.484;11.314;2023-03-31T23:47:30;10.10;;;4.63;;
60257;SDS011;46115;44.484;11.314;2023-03-31T23:51:33;10.00;;;4.57;;
60257;SDS011;46115;44.484;11.314;2023-03-31T23:55:35;9.82;;;4.68;;
60257;SDS011;46115;44.484;11.314;2023-03-31T23:59:39;9.60;;;5.03;;
